sensor_id;sensor_type;location;lat;lon;timestamp;pressure;altitude;pressure_sealevel;temperature;humidity
43436;BME280;36399;51.444;-2.018;2022-10-16T00:01:27;99450.03;;;10.75;100.00
43436;BME280;36399;51.444;-2.018;2022-10-16T00:03:54;99447.38;;;10.83;100.00
43436;BME280;36399;51.444;-2.018;2022-10-16T00:06:21;99466.59;;;10.88;100.00
43436;BME280;36399;51.444;-2.018;2022-10-16T00:08:48;99445.59;;;10.94;100.00
43436;BME280;36399;51.444;-2.018;2022-10-16T00:11:20;99456.97;;;10.95;100.00
43436;BME280;36399;51.444;-2.018;2022-10-16T00:13:47;99449.06;;;10.99;100.00
43436;BME280;36399;51.444;-2.018;2022-10-16T00:16:14;99474.44;;;11.02;100.00
43436;BME280;36399;51.444;-2.018;2022-10-16T00:18:41;99470.97;;;10.97;100.00
43436;BME280;36399;51.444;-2.018;2022-10-16T00:21:12;99474.47;;;10.97;100.00
43436;BME280;36399;51.444;-2.018;2022-10-16T00:23:38;99465.72;;;10.91;100.00
43436;BME280;36399;51.444;-2.018;2022-10-16T00:26:07;99464.88;;;10.86;100.00
43436;BME280;36399;51.444;-2.018;2022-10-16T00:28:34;99459.66;;;10.80;100.00
43436;BME280;36399;51.444;-2.018;2022-10-16T00:31:07;99450.91;;;10.79;100.00
43436;BME280;36399;51.444;-2.018;2022-10-16T00:33:34;99448.28;;;10.78;100.00
43436;BME280;36399;51.444;-2.018;2022-10-16T00:36:01;99445.66;;;10.78;100.00
43436;BME280;36399;51.444;-2.018;2022-10-16T00:38:28;99463.09;;;10.88;100.00
43436;BME280;36399;51.444;-2.018;2022-10-16T00:40:54;99447.38;;;10.86;100.00
43436;BME280;36399;51.444;-2.018;2022-10-16T00:46:18;99456.09;;;10.91;100.00
43436;BME280;36399;51.444;-2.018;2022-10-16T00:49:17;99464.00;;;10.84;100.00
43436;BME280;36399;51.444;-2.018;2022-10-16T00:51:48;99464.03;;;10.74;100.00
43436;BME280;36399;51.444;-2.018;2022-10-16T00:54:21;99474.56;;;10.73;100.00
43436;BME280;36399;51.444;-2.018;2022-10-16T00:56:48;99485.06;;;10.71;100.00
43436;BME280;36399;51.444;-2.018;2022-10-16T00:59:18;99480.66;;;10.80;100.00
43436;BME280;36399;51.444;-2.018;2022-10-16T01:01:45;99478.91;;;10.80;100.00
43436;BME280;36399;51.444;-2.018;2022-10-16T01:04:11;99483.22;;;10.89;100.00
43436;BME280;36399;51.444;-2.018;2022-10-16T01:07:04;99492.00;;;10.85;100.00
43436;BME280;36399;51.444;-2.018;2022-10-16T01:12:37;99481.56;;;10.72;100.00
43436;BME280;36399;51.444;-2.018;2022-10-16T01:15:14;99504.31;;;10.73;100.00
43436;BME280;36399;51.444;-2.018;2022-10-16T01:20:14;99509.59;;;10.61;100.00
43436;BME280;36399;51.444;-2.018;2022-10-16T01:25:56;99495.53;;;10.74;100.00
43436;BME280;36399;51.444;-2.018;2022-10-16T01:28:31;99505.22;;;10.63;100.00
43436;BME280;36399;51.444;-2.018;2022-10-16T01:31:01;99504.34;;;10.58;100.00
43436;BME280;36399;51.444;-2.018;2022-10-16T01:33:32;99518.34;;;10.63;100.00
43436;BME280;36399;51.444;-2.018;2022-10-16T01:36:07;99517.47;;;10.57;100.00
43436;BME280;36399;51.444;-2.018;2022-10-16T01:38:38;99517.50;;;10.48;100.00
43436;BME280;36399;51.444;-2.018;2022-10-16T01:41:13;99528.00;;;10.31;100.00
43436;BME280;36399;51.444;-2.018;2022-10-16T01:44:06;99538.50;;;10.29;100.00
43436;BME280;36399;51.444;-2.018;2022-10-16T01:46:36;99533.25;;;10.31;100.00
43436;BME280;36399;51.444;-2.018;2022-10-16T01:49:03;99527.09;;;10.20;100.00
43436;BME280;36399;51.444;-2.018;2022-10-16T01:51:29;99545.47;;;10.20;100.00
43436;BME280;36399;51.444;-2.018;2022-10-16T01:53:57;99541.09;;;10.16;100.00
43436;BME280;36399;51.444;-2.018;2022-10-16T01:56:25;99533.22;;;10.09;100.00
43436;BME280;36399;51.444;-2.018;2022-10-16T01:59:01;99548.97;;;10.14;100.00
43436;BME280;36399;51.444;-2.018;2022-10-16T02:01:31;99549.84;;;10.08;100.00
43436;BME280;36399;51.444;-2.018;2022-10-16T02:04:04;99551.59;;;9.97;100.00
43436;BME280;36399;51.444;-2.018;2022-10-16T02:06:33;99551.59;;;9.94;100.00
43436;BME280;36399;51.444;-2.018;2022-10-16T02:08:59;99553.34;;;9.95;100.00
43436;BME280;36399;51.444;-2.018;2022-10-16T02:11:25;99552.47;;;9.93;100.00
43436;BME280;36399;51.444;-2.018;2022-10-16T02:13:54;99563.81;;;9.95;100.00
43436;BME280;36399;51.444;-2.018;2022-10-16T02:16:23;99555.97;;;9.98;100.00
43436;BME280;36399;51.444;-2.018;2022-10-16T02:18:57;99574.31;;;9.98;100.00
43436;BME280;36399;51.444;-2.018;2022-10-16T02:21:26;99563.81;;;9.92;100.00
43436;BME280;36399;51.444;-2.018;2022-10-16T02:26:37;99569.03;;;9.80;100.00
43436;BME280;36399;51.444;-2.018;2022-10-16T02:29:11;99578.63;;;9.81;100.00
43436;BME280;36399;51.444;-2.018;2022-10-16T02:31:41;99578.63;;;9.86;100.00
43436;BME280;36399;51.444;-2.018;2022-10-16T02:34:09;99585.63;;;9.84;100.00
43436;BME280;36399;51.444;-2.018;2022-10-16T02:36:38;99601.34;;;9.74;100.00
43436;BME280;36399;51.444;-2.018;2022-10-16T02:39:05;99583.00;;;9.77;100.00
43436;BME280;36399;51.444;-2.018;2022-10-16T02:41:32;99594.34;;;9.76;100.00
43436;BME280;36399;51.444;-2.018;2022-10-16T02:43:58;99580.38;;;9.68;100.00
43436;BME280;36399;51.444;-2.018;2022-10-16T02:46:24;99584.75;;;9.74;100.00
43436;BME280;36399;51.444;-2.018;2022-10-16T02:48:50;99601.31;;;9.64;100.00
43436;BME280;36399;51.444;-2.018;2022-10-16T02:51:16;99601.28;;;9.53;100.00
43436;BME280;36399;51.444;-2.018;2022-10-16T02:53:42;99595.19;;;9.56;100.00
43436;BME280;36399;51.444;-2.018;2022-10-16T02:56:08;99581.22;;;9.57;100.00
43436;BME280;36399;51.444;-2.018;2022-10-16T02:58:34;99600.41;;;9.49;100.00
43436;BME280;36399;51.444;-2.018;2022-10-16T03:01:00;99602.13;;;9.44;100.00
43436;BME280;36399;51.444;-2.018;2022-10-16T03:03:26;99602.13;;;9.41;100.00
43436;BME280;36399;51.444;-2.018;2022-10-16T03:05:51;99600.41;;;9.46;100.00
43436;BME280;36399;51.444;-2.018;2022-10-16T03:08:17;99616.91;;;9.36;100.00
43436;BME280;36399;51.444;-2.018;2022-10-16T03:10:49;99620.38;;;9.31;100.00
43436;BME280;36399;51.444;-2.018;2022-10-16T03:13:15;99624.75;;;9.27;100.00
43436;BME280;36399;51.444;-2.018;2022-10-16T03:15:41;99613.38;;;9.24;100.00
43436;BME280;36399;51.444;-2.018;2022-10-16T03:18:07;99609.03;;;9.27;100.00
43436;BME280;36399;51.444;-2.018;2022-10-16T03:20:33;99623.00;;;9.29;100.00
43436;BME280;36399;51.444;-2.018;2022-10-16T03:22:59;99629.09;;;9.24;100.00
43436;BME280;36399;51.444;-2.018;2022-10-16T03:25:25;99625.56;;;9.14;100.00
43436;BME280;36399;51.444;-2.018;2022-10-16T03:27:51;99628.19;;;9.17;100.00
43436;BME280;36399;51.444;-2.018;2022-10-16T03:30:17;99642.16;;;9.19;100.00
43436;BME280;36399;51.444;-2.018;2022-10-16T03:32:44;99639.53;;;9.19;100.00
43436;BME280;36399;51.444;-2.018;2022-10-16T03:35:12;99643.88;;;9.14;100.00
43436;BME280;36399;51.444;-2.018;2022-10-16T03:37:38;99642.13;;;9.10;100.00
43436;BME280;36399;51.444;-2.018;2022-10-16T03:40:04;99656.06;;;9.09;100.00
43436;BME280;36399;51.444;-2.018;2022-10-16T03:42:31;99649.97;;;9.10;100.00
43436;BME280;36399;51.444;-2.018;2022-10-16T03:44:56;99663.06;;;9.10;100.00
43436;BME280;36399;51.444;-2.018;2022-10-16T03:47:22;99664.75;;;8.99;100.00
43436;BME280;36399;51.444;-2.018;2022-10-16T03:49:49;99683.91;;;8.95;100.00
43436;BME280;36399;51.444;-2.018;2022-10-16T03:52:16;99678.66;;;8.89;100.00
43436;BME280;36399;51.444;-2.018;2022-10-16T03:54:42;99675.09;;;8.83;100.00
43436;BME280;36399;51.444;-2.018;2022-10-16T03:57:08;99689.97;;;8.88;100.00
43436;BME280;36399;51.444;-2.018;2022-10-16T03:59:34;99690.78;;;8.80;100.00
43436;BME280;36399;51.444;-2.018;2022-10-16T04:02:00;99690.78;;;8.80;100.00
43436;BME280;36399;51.444;-2.018;2022-10-16T04:04:26;99687.38;;;8.91;100.00
43436;BME280;36399;51.444;-2.018;2022-10-16T04:06:52;99696.09;;;8.90;100.00
43436;BME280;36399;51.444;-2.018;2022-10-16T04:09:17;99703.09;;;8.91;100.00
43436;BME280;36399;51.444;-2.018;2022-10-16T04:11:43;99697.84;;;8.88;100.00
43436;BME280;36399;51.444;-2.018;2022-10-16T04:14:09;99704.72;;;8.79;100.00
43436;BME280;36399;51.444;-2.018;2022-10-16T04:16:35;99708.19;;;8.78;100.00
43436;BME280;36399;51.444;-2.018;2022-10-16T04:19:01;99719.59;;;8.83;100.00
43436;BME280;36399;51.444;-2.018;2022-10-16T04:21:27;99720.44;;;8.82;100.00
43436;BME280;36399;51.444;-2.018;2022-10-16T04:23:53;99719.50;;;8.74;100.00
43436;BME280;36399;51.444;-2.018;2022-10-16T04:26:19;99733.47;;;8.75;100.00
43436;BME280;36399;51.444;-2.018;2022-10-16T04:28:45;99728.19;;;8.67;100.00
43436;BME280;36399;51.444;-2.018;2022-10-16T04:31:11;99739.44;;;8.57;100.00
43436;BME280;36399;51.444;-2.018;2022-10-16T04:33:37;99737.69;;;8.56;100.00
43436;BME280;36399;51.444;-2.018;2022-10-16T04:36:03;99732.34;;;8.44;100.00
43436;BME280;36399;51.444;-2.018;2022-10-16T04:38:29;99721.03;;;8.46;100.00
43436;BME280;36399;51.444;-2.018;2022-10-16T04:40:55;99728.97;;;8.57;100.00
43436;BME280;36399;51.444;-2.018;2022-10-16T04:43:22;99737.72;;;8.61;100.00
43436;BME280;36399;51.444;-2.018;2022-10-16T04:45:48;99739.47;;;8.60;100.00
43436;BME280;36399;51.444;-2.018;2022-10-16T04:48:16;99737.69;;;8.59;100.00
43436;BME280;36399;51.444;-2.018;2022-10-16T04:50:42;99742.84;;;8.50;100.00
43436;BME280;36399;51.444;-2.018;2022-10-16T04:53:08;99743.69;;;8.46;100.00
43436;BME280;36399;51.444;-2.018;2022-10-16T04:55:34;99745.34;;;8.36;100.00
43436;BME280;36399;51.444;-2.018;2022-10-16T04:58:01;99754.75;;;8.25;100.00
43436;BME280;36399;51.444;-2.018;2022-10-16T05:00:27;99755.56;;;8.21;100.00
43436;BME280;36399;51.444;-2.018;2022-10-16T05:02:53;99761.63;;;8.15;100.00
43436;BME280;36399;51.444;-2.018;2022-10-16T05:05:19;99767.66;;;8.10;100.00
43436;BME280;36399;51.444;-2.018;2022-10-16T05:07:46;99778.03;;;8.04;100.00
43436;BME280;36399;51.444;-2.018;2022-10-16T05:10:12;99784.06;;;7.98;100.00
43436;BME280;36399;51.444;-2.018;2022-10-16T05:12:38;99784.97;;;8.00;100.00
43436;BME280;36399;51.444;-2.018;2022-10-16T05:15:04;99790.16;;;7.96;100.00
43436;BME280;36399;51.444;-2.018;2022-10-16T05:17:30;99793.50;;;7.85;100.00
43436;BME280;36399;51.444;-2.018;2022-10-16T05:19:56;99796.81;;;7.75;100.00
43436;BME280;36399;51.444;-2.018;2022-10-16T05:22:22;99793.38;;;7.78;100.00
43436;BME280;36399;51.444;-2.018;2022-10-16T05:24:48;99797.66;;;7.71;100.00
43436;BME280;36399;51.444;-2.018;2022-10-16T05:27:14;99799.25;;;7.62;100.00
43436;BME280;36399;51.444;-2.018;2022-10-16T05:29:45;99801.88;;;7.62;100.00
43436;BME280;36399;51.444;-2.018;2022-10-16T05:32:13;99814.75;;;7.49;100.00
43436;BME280;36399;51.444;-2.018;2022-10-16T05:34:39;99816.38;;;7.41;100.00
43436;BME280;36399;51.444;-2.018;2022-10-16T05:37:05;99824.84;;;7.28;100.00
43436;BME280;36399;51.444;-2.018;2022-10-16T05:39:31;99831.72;;;7.23;100.00
43436;BME280;36399;51.444;-2.018;2022-10-16T05:41:57;99831.59;;;7.14;100.00
43436;BME280;36399;51.444;-2.018;2022-10-16T05:44:23;99836.59;;;7.02;100.00
43436;BME280;36399;51.444;-2.018;2022-10-16T05:46:49;99824.16;;;6.85;100.00
43436;BME280;36399;51.444;-2.018;2022-10-16T05:49:15;99830.88;;;6.74;100.00
43436;BME280;36399;51.444;-2.018;2022-10-16T05:51:41;99822.19;;;6.74;100.00
43436;BME280;36399;51.444;-2.018;2022-10-16T05:54:08;99824.91;;;6.78;100.00
43436;BME280;36399;51.444;-2.018;2022-10-16T05:56:33;99828.19;;;6.70;100.00
43436;BME280;36399;51.444;-2.018;2022-10-16T05:58:59;99837.53;;;6.57;100.00
43436;BME280;36399;51.444;-2.018;2022-10-16T06:01:25;99835.38;;;6.35;100.00
43436;BME280;36399;51.444;-2.018;2022-10-16T06:03:52;99830.56;;;6.56;100.00
43436;BME280;36399;51.444;-2.018;2022-10-16T06:06:20;99826.44;;;6.69;100.00
43436;BME280;36399;51.444;-2.018;2022-10-16T06:08:47;99825.13;;;6.90;100.00
43436;BME280;36399;51.444;-2.018;2022-10-16T06:11:17;99824.38;;;6.97;100.00
43436;BME280;36399;51.444;-2.018;2022-10-16T06:13:43;99829.53;;;6.94;100.00
43436;BME280;36399;51.444;-2.018;2022-10-16T06:16:12;99826.28;;;7.09;100.00
43436;BME280;36399;51.444;-2.018;2022-10-16T06:18:38;99825.31;;;7.03;100.00
43436;BME280;36399;51.444;-2.018;2022-10-16T06:21:09;99826.16;;;7.02;100.00
43436;BME280;36399;51.444;-2.018;2022-10-16T06:23:36;99825.22;;;6.96;100.00
43436;BME280;36399;51.444;-2.018;2022-10-16T06:26:10;99829.63;;;7.01;100.00
43436;BME280;36399;51.444;-2.018;2022-10-16T06:28:37;99830.28;;;6.87;100.00
43436;BME280;36399;51.444;-2.018;2022-10-16T06:31:04;99836.97;;;6.73;100.00
43436;BME280;36399;51.444;-2.018;2022-10-16T06:33:31;99836.78;;;6.64;100.00
43436;BME280;36399;51.444;-2.018;2022-10-16T06:36:01;99840.00;;;6.49;100.00
43436;BME280;36399;51.444;-2.018;2022-10-16T06:38:29;99839.56;;;6.26;100.00
43436;BME280;36399;51.444;-2.018;2022-10-16T06:40:55;99849.59;;;6.08;100.00
43436;BME280;36399;51.444;-2.018;2022-10-16T06:43:21;99846.59;;;5.90;100.00
43436;BME280;36399;51.444;-2.018;2022-10-16T06:45:54;99851.72;;;5.87;100.00
43436;BME280;36399;51.444;-2.018;2022-10-16T06:48:22;99844.53;;;5.77;100.00
43436;BME280;36399;51.444;-2.018;2022-10-16T06:53:28;99856.50;;;5.68;100.00
43436;BME280;36399;51.444;-2.018;2022-10-16T06:55:55;99866.84;;;5.65;100.00
43436;BME280;36399;51.444;-2.018;2022-10-16T06:58:21;99861.56;;;5.62;100.00
43436;BME280;36399;51.444;-2.018;2022-10-16T07:00:47;99868.31;;;5.54;100.00
43436;BME280;36399;51.444;-2.018;2022-10-16T07:03:13;99866.41;;;5.47;100.00
43436;BME280;36399;51.444;-2.018;2022-10-16T07:05:41;99871.63;;;5.47;100.00
43436;BME280;36399;51.444;-2.018;2022-10-16T07:08:07;99880.13;;;5.40;100.00
43436;BME280;36399;51.444;-2.018;2022-10-16T07:10:34;99885.25;;;5.37;100.00
43436;BME280;36399;51.444;-2.018;2022-10-16T07:13:00;99886.16;;;5.37;100.00
43436;BME280;36399;51.444;-2.018;2022-10-16T07:15:26;99886.63;;;5.57;100.00
43436;BME280;36399;51.444;-2.018;2022-10-16T07:17:53;99884.78;;;5.53;100.00
43436;BME280;36399;51.444;-2.018;2022-10-16T07:20:19;99879.56;;;5.53;100.00
43436;BME280;36399;51.444;-2.018;2022-10-16T07:22:45;99876.16;;;5.56;100.00
43436;BME280;36399;51.444;-2.018;2022-10-16T07:25:11;99877.38;;;5.71;100.00
43436;BME280;36399;51.444;-2.018;2022-10-16T07:27:38;99885.38;;;5.78;100.00
43436;BME280;36399;51.444;-2.018;2022-10-16T07:30:05;99887.13;;;5.79;100.00
43436;BME280;36399;51.444;-2.018;2022-10-16T07:32:31;99891.13;;;6.00;100.00
43436;BME280;36399;51.444;-2.018;2022-10-16T07:34:57;99889.81;;;6.21;100.00
43436;BME280;36399;51.444;-2.018;2022-10-16T07:37:23;99896.44;;;6.46;100.00
43436;BME280;36399;51.444;-2.018;2022-10-16T07:39:49;99900.06;;;6.54;100.00
43436;BME280;36399;51.444;-2.018;2022-10-16T07:42:15;99889.81;;;6.63;100.00
43436;BME280;36399;51.444;-2.018;2022-10-16T07:44:41;99892.56;;;6.71;100.00
43436;BME280;36399;51.444;-2.018;2022-10-16T07:47:07;99902.44;;;6.85;100.00
43436;BME280;36399;51.444;-2.018;2022-10-16T07:49:33;99892.00;;;6.85;100.00
43436;BME280;36399;51.444;-2.018;2022-10-16T07:51:59;99893.16;;;7.01;100.00
43436;BME280;36399;51.444;-2.018;2022-10-16T07:54:25;99888.25;;;7.19;100.00
43436;BME280;36399;51.444;-2.018;2022-10-16T07:56:51;99887.50;;;7.28;100.00
43436;BME280;36399;51.444;-2.018;2022-10-16T07:59:17;99899.13;;;7.45;100.00
43436;BME280;36399;51.444;-2.018;2022-10-16T08:01:43;99911.53;;;7.58;100.00
43436;BME280;36399;51.444;-2.018;2022-10-16T08:04:10;99919.50;;;7.68;100.00
43436;BME280;36399;51.444;-2.018;2022-10-16T08:06:38;99924.13;;;7.82;100.00
43436;BME280;36399;51.444;-2.018;2022-10-16T08:09:05;99926.13;;;8.02;100.00
43436;BME280;36399;51.444;-2.018;2022-10-16T08:11:31;99936.00;;;8.22;100.00
43436;BME280;36399;51.444;-2.018;2022-10-16T08:13:57;99947.69;;;8.44;100.00
43436;BME280;36399;51.444;-2.018;2022-10-16T08:16:23;99952.22;;;8.59;100.00
43436;BME280;36399;51.444;-2.018;2022-10-16T08:18:49;99957.63;;;8.71;100.00
43436;BME280;36399;51.444;-2.018;2022-10-16T08:21:19;99963.94;;;8.87;100.00
43436;BME280;36399;51.444;-2.018;2022-10-16T08:23:46;99971.13;;;9.06;100.00
43436;BME280;36399;51.444;-2.018;2022-10-16T08:26:12;99981.72;;;9.17;100.00
43436;BME280;36399;51.444;-2.018;2022-10-16T08:28:38;99982.88;;;9.42;100.00
43436;BME280;36399;51.444;-2.018;2022-10-16T08:31:12;99991.66;;;9.48;100.00
43436;BME280;36399;51.444;-2.018;2022-10-16T08:33:41;99989.34;;;9.87;100.00
43436;BME280;36399;51.444;-2.018;2022-10-16T08:36:09;99998.94;;;9.83;100.00
43436;BME280;36399;51.444;-2.018;2022-10-16T08:38:35;100011.38;;;10.04;100.00
43436;BME280;36399;51.444;-2.018;2022-10-16T08:43:54;100024.72;;;10.34;100.00
43436;BME280;36399;51.444;-2.018;2022-10-16T08:49:10;100036.19;;;10.44;100.00
43436;BME280;36399;51.444;-2.018;2022-10-16T08:51:38;100039.69;;;10.46;100.00
43436;BME280;36399;51.444;-2.018;2022-10-16T08:54:06;100039.84;;;10.75;100.00
43436;BME280;36399;51.444;-2.018;2022-10-16T08:56:37;100039.91;;;10.89;100.00
43436;BME280;36399;51.444;-2.018;2022-10-16T08:59:06;100054.03;;;11.09;100.00
43436;BME280;36399;51.444;-2.018;2022-10-16T09:01:41;100056.66;;;11.04;100.00
43436;BME280;36399;51.444;-2.018;2022-10-16T09:04:46;100061.94;;;11.12;100.00
43436;BME280;36399;51.444;-2.018;2022-10-16T09:09:57;100070.78;;;11.43;100.00
43436;BME280;36399;51.444;-2.018;2022-10-16T09:12:52;100076.13;;;11.60;100.00
43436;BME280;36399;51.444;-2.018;2022-10-16T09:23:47;100080.63;;;12.14;100.00
43436;BME280;36399;51.444;-2.018;2022-10-16T09:26:14;100087.56;;;12.85;100.00
43436;BME280;36399;51.444;-2.018;2022-10-16T09:28:42;100084.63;;;13.74;100.00
43436;BME280;36399;51.444;-2.018;2022-10-16T09:31:14;100099.88;;;14.53;100.00
43436;BME280;36399;51.444;-2.018;2022-10-16T09:33:42;100127.84;;;15.55;100.00
43436;BME280;36399;51.444;-2.018;2022-10-16T09:36:10;100146.22;;;17.35;100.00
43436;BME280;36399;51.444;-2.018;2022-10-16T09:38:37;100160.28;;;16.92;100.00
43436;BME280;36399;51.444;-2.018;2022-10-16T09:41:15;100164.34;;;16.59;100.00
43436;BME280;36399;51.444;-2.018;2022-10-16T09:46:29;100184.81;;;17.51;100.00
43436;BME280;36399;51.444;-2.018;2022-10-16T09:51:44;100179.19;;;17.68;100.00
43436;BME280;36399;51.444;-2.018;2022-10-16T09:56:37;100186.03;;;18.96;100.00
43436;BME280;36399;51.444;-2.018;2022-10-16T09:59:12;100182.16;;;19.41;100.00
43436;BME280;36399;51.444;-2.018;2022-10-16T10:01:41;100189.06;;;20.40;100.00
43436;BME280;36399;51.444;-2.018;2022-10-16T10:04:08;100185.41;;;19.83;100.00
43436;BME280;36399;51.444;-2.018;2022-10-16T10:06:47;100184.50;;;19.53;100.00
43436;BME280;36399;51.444;-2.018;2022-10-16T10:14:23;100175.53;;;20.72;100.00
43436;BME280;36399;51.444;-2.018;2022-10-16T10:16:52;100176.81;;;21.40;100.00
43436;BME280;36399;51.444;-2.018;2022-10-16T10:19:21;100179.03;;;20.74;100.00
43436;BME280;36399;51.444;-2.018;2022-10-16T10:21:51;100177.59;;;21.67;100.00
43436;BME280;36399;51.444;-2.018;2022-10-16T10:24:19;100182.91;;;22.37;100.00
43436;BME280;36399;51.444;-2.018;2022-10-16T10:31:56;100187.91;;;21.76;100.00
43436;BME280;36399;51.444;-2.018;2022-10-16T10:40:18;100177.06;;;21.06;100.00
43436;BME280;36399;51.444;-2.018;2022-10-16T10:42:59;100171.25;;;21.46;100.00
43436;BME280;36399;51.444;-2.018;2022-10-16T10:46:02;100171.09;;;22.21;100.00
43436;BME280;36399;51.444;-2.018;2022-10-16T10:51:44;100174.47;;;21.04;100.00
43436;BME280;36399;51.444;-2.018;2022-10-16T10:54:24;100175.50;;;21.98;100.00
43436;BME280;36399;51.444;-2.018;2022-10-16T10:56:58;100171.13;;;20.71;100.00
43436;BME280;36399;51.444;-2.018;2022-10-16T11:07:36;100177.72;;;19.08;100.00
43436;BME280;36399;51.444;-2.018;2022-10-16T11:10:18;100183.28;;;18.99;100.00
43436;BME280;36399;51.444;-2.018;2022-10-16T11:12:49;100183.22;;;19.67;100.00
43436;BME280;36399;51.444;-2.018;2022-10-16T11:15:21;100176.34;;;20.48;100.00
43436;BME280;36399;51.444;-2.018;2022-10-16T11:20:25;100176.81;;;19.09;100.00
43436;BME280;36399;51.444;-2.018;2022-10-16T11:25:32;100162.97;;;18.96;100.00
43436;BME280;36399;51.444;-2.018;2022-10-16T11:28:06;100161.13;;;19.94;100.00
43436;BME280;36399;51.444;-2.018;2022-10-16T11:30:41;100157.19;;;20.90;100.00
43436;BME280;36399;51.444;-2.018;2022-10-16T11:33:23;100155.94;;;20.47;100.00
43436;BME280;36399;51.444;-2.018;2022-10-16T11:35:53;100157.13;;;20.37;100.00
43436;BME280;36399;51.444;-2.018;2022-10-16T11:38:31;100154.31;;;20.13;100.00
43436;BME280;36399;51.444;-2.018;2022-10-16T11:41:02;100155.22;;;20.68;100.00
43436;BME280;36399;51.444;-2.018;2022-10-16T11:43:43;100163.88;;;21.76;100.00
43436;BME280;36399;51.444;-2.018;2022-10-16T11:46:16;100157.97;;;23.02;100.00
43436;BME280;36399;51.444;-2.018;2022-10-16T11:48:55;100160.13;;;21.33;100.00
43436;BME280;36399;51.444;-2.018;2022-10-16T11:51:36;100164.00;;;20.45;100.00
43436;BME280;36399;51.444;-2.018;2022-10-16T11:57:23;100163.50;;;21.12;100.00
43436;BME280;36399;51.444;-2.018;2022-10-16T11:59:55;100165.19;;;21.89;100.00
43436;BME280;36399;51.444;-2.018;2022-10-16T12:05:18;100147.41;;;22.12;100.00
43436;BME280;36399;51.444;-2.018;2022-10-16T12:08:14;100158.81;;;20.94;100.00
43436;BME280;36399;51.444;-2.018;2022-10-16T12:10:43;100154.81;;;19.67;100.00
43436;BME280;36399;51.444;-2.018;2022-10-16T12:13:39;100151.53;;;18.92;100.00
43436;BME280;36399;51.444;-2.018;2022-10-16T12:18:42;100134.81;;;20.11;100.00
43436;BME280;36399;51.444;-2.018;2022-10-16T12:21:09;100135.31;;;20.52;100.00
43436;BME280;36399;51.444;-2.018;2022-10-16T12:23:48;100138.59;;;20.60;100.00
43436;BME280;36399;51.444;-2.018;2022-10-16T12:26:26;100147.00;;;19.61;100.00
43436;BME280;36399;51.444;-2.018;2022-10-16T12:28:54;100150.66;;;18.55;100.00
43436;BME280;36399;51.444;-2.018;2022-10-16T12:31:21;100139.66;;;17.96;100.00
43436;BME280;36399;51.444;-2.018;2022-10-16T12:33:58;100145.44;;;17.30;100.00
43436;BME280;36399;51.444;-2.018;2022-10-16T12:36:30;100145.09;;;17.00;100.00
43436;BME280;36399;51.444;-2.018;2022-10-16T12:38:58;100140.94;;;16.87;100.00
43436;BME280;36399;51.444;-2.018;2022-10-16T12:41:35;100144.59;;;17.28;100.00
43436;BME280;36399;51.444;-2.018;2022-10-16T12:44:19;100145.75;;;18.01;100.00
43436;BME280;36399;51.444;-2.018;2022-10-16T12:46:46;100159.13;;;18.35;100.00
43436;BME280;36399;51.444;-2.018;2022-10-16T12:51:39;100141.66;;;18.62;100.00
43436;BME280;36399;51.444;-2.018;2022-10-16T12:54:37;100146.28;;;18.89;100.00
43436;BME280;36399;51.444;-2.018;2022-10-16T13:09:02;100132.25;;;18.10;100.00
43436;BME280;36399;51.444;-2.018;2022-10-16T13:14:36;100130.28;;;18.18;100.00
43436;BME280;36399;51.444;-2.018;2022-10-16T13:20:16;100111.06;;;18.44;100.00
43436;BME280;36399;51.444;-2.018;2022-10-16T13:22:53;100111.91;;;18.09;100.00
43436;BME280;36399;51.444;-2.018;2022-10-16T13:28:12;100110.19;;;18.07;100.00
43436;BME280;36399;51.444;-2.018;2022-10-16T13:30:43;100106.19;;;17.89;100.00
43436;BME280;36399;51.444;-2.018;2022-10-16T13:33:16;100107.16;;;17.85;100.00
43436;BME280;36399;51.444;-2.018;2022-10-16T13:35:52;100111.06;;;17.65;100.00
43436;BME280;36399;51.444;-2.018;2022-10-16T13:38:21;100112.13;;;17.58;100.00
43436;BME280;36399;51.444;-2.018;2022-10-16T13:40:52;100091.78;;;17.57;100.00
43436;BME280;36399;51.444;-2.018;2022-10-16T13:43:22;100091.59;;;17.68;100.00
43436;BME280;36399;51.444;-2.018;2022-10-16T13:46:03;100086.91;;;17.81;100.00
43436;BME280;36399;51.444;-2.018;2022-10-16T13:48:31;100077.38;;;18.09;100.00
43436;BME280;36399;51.444;-2.018;2022-10-16T13:51:05;100089.63;;;17.78;100.00
43436;BME280;36399;51.444;-2.018;2022-10-16T13:53:36;100081.34;;;17.50;100.00
43436;BME280;36399;51.444;-2.018;2022-10-16T13:56:04;100092.59;;;17.19;100.00
43436;BME280;36399;51.444;-2.018;2022-10-16T13:58:30;100093.75;;;17.04;100.00
43436;BME280;36399;51.444;-2.018;2022-10-16T14:01:04;100091.75;;;17.16;100.00
43436;BME280;36399;51.444;-2.018;2022-10-16T14:03:32;100094.00;;;16.92;100.00
43436;BME280;36399;51.444;-2.018;2022-10-16T14:06:02;100097.00;;;16.74;100.00
43436;BME280;36399;51.444;-2.018;2022-10-16T14:08:29;100095.44;;;16.59;100.00
43436;BME280;36399;51.444;-2.018;2022-10-16T14:10:58;100091.06;;;16.57;100.00
43436;BME280;36399;51.444;-2.018;2022-10-16T14:13:36;100091.91;;;16.59;100.00
43436;BME280;36399;51.444;-2.018;2022-10-16T14:16:07;100094.47;;;16.68;100.00
43436;BME280;36399;51.444;-2.018;2022-10-16T14:18:35;100086.84;;;16.45;100.00
43436;BME280;36399;51.444;-2.018;2022-10-16T14:21:06;100084.59;;;16.22;100.00
43436;BME280;36399;51.444;-2.018;2022-10-16T14:23:37;100082.59;;;16.36;100.00
43436;BME280;36399;51.444;-2.018;2022-10-16T14:28:37;100076.66;;;16.22;100.00
43436;BME280;36399;51.444;-2.018;2022-10-16T14:33:47;100075.91;;;16.14;100.00
43436;BME280;36399;51.444;-2.018;2022-10-16T14:36:14;100068.75;;;16.19;100.00
43436;BME280;36399;51.444;-2.018;2022-10-16T14:41:22;100063.47;;;16.19;100.00
43436;BME280;36399;51.444;-2.018;2022-10-16T14:43:53;100047.59;;;16.18;100.00
43436;BME280;36399;51.444;-2.018;2022-10-16T14:46:22;100059.25;;;16.57;100.00